Time;durP1;ratioP1;P1;durP2;ratioP2;P2;SDS_P1;SDS_P2;PMS_P1;PMS_P2;Temp;Humidity;BMP_temperature;BMP_pressure;BME280_temperature;BME280_humidity;BME280_pressure;Samples;Min_cycle;Max_cycle;Signal;HPM_P1;HPM_P2
2021/05/26 04:51:20;;;;;;;18.30;12.00;;;8.50;99.90;;;;;;5510388;23;19923;-68
2021/05/26 04:53:46;;;;;;;19.48;13.00;;;8.60;99.90;;;;;;4951355;28;20276;-68
2021/05/26 04:56:13;;;;;;;19.00;12.50;;;8.50;99.90;;;;;;4950069;29;20070;-68
2021/05/26 04:58:40;;;;;;;;;;;8.60;99.90;;;;;;4952368;28;20130;-67
2021/05/26 05:01:07;;;;;;;20.30;13.13;;;8.50;99.90;;;;;;4951936;28;19969;-67
2021/05/26 05:03:34;;;;;;;;;;;8.60;99.90;;;;;;4952335;28;20295;-67
2021/05/26 05:06:00;;;;;;;24.65;13.88;;;8.50;99.90;;;;;;5002098;23;19921;-68
2021/05/26 05:08:27;;;;;;;20.90;14.48;;;8.60;99.90;;;;;;4976473;28;20046;-71
2021/05/26 05:10:54;;;;;;;22.88;14.57;;;8.60;99.90;;;;;;4986107;28;20046;-71
2021/05/26 05:13:20;;;;;;;26.60;15.73;;;8.60;99.90;;;;;;4978315;28;20138;-71
2021/05/26 05:15:47;;;;;;;18.60;13.80;;;8.60;99.90;;;;;;4973032;28;20046;-71
2021/05/26 05:18:13;;;;;;;21.67;15.20;;;8.60;99.90;;;;;;4971782;28;20047;-70
2021/05/26 05:20:40;;;;;;;25.35;15.48;;;8.60;99.90;;;;;;4969278;28;20132;-71
2021/05/26 05:23:07;;;;;;;21.48;15.02;;;8.70;99.90;;;;;;4967505;28;20046;-71
2021/05/26 05:25:34;;;;;;;19.83;14.00;;;8.70;99.90;;;;;;4966593;28;20054;-70
2021/05/26 05:28:01;;;;;;;28.13;14.55;;;8.70;99.90;;;;;;4971025;28;20066;-70
2021/05/26 05:30:28;;;;;;;19.02;13.90;;;8.70;99.90;;;;;;4971783;28;20067;-70
2021/05/26 05:32:54;;;;;;;;;;;8.60;99.90;;;;;;4972109;28;20047;-71
2021/05/26 05:35:21;;;;;;;14.88;11.18;;;8.70;99.90;;;;;;4970809;28;19922;-71
2021/05/26 05:37:47;;;;;;;18.70;11.23;;;8.70;99.90;;;;;;4971544;28;20542;-71
2021/05/26 05:40:14;;;;;;;;;;;8.70;99.90;;;;;;4971917;28;20074;-70
2021/05/26 05:42:41;;;;;;;19.70;10.93;;;8.70;99.90;;;;;;4970045;28;19964;-70
2021/05/26 05:45:09;;;;;;;12.35;10.38;;;8.70;99.90;;;;;;4971285;28;20047;-70
2021/05/26 05:47:35;;;;;;;20.60;10.77;;;8.80;99.90;;;;;;4971006;28;20395;-70
2021/05/26 05:50:03;;;;;;;17.00;10.40;;;8.80;99.90;;;;;;4974191;28;20039;-70
2021/05/26 05:52:29;;;;;;;14.93;11.73;;;8.80;99.90;;;;;;4975472;28;20050;-70
2021/05/26 05:54:56;;;;;;;;;;;8.90;99.90;;;;;;4975581;28;20039;-70
2021/05/26 05:57:22;;;;;;;15.60;9.68;;;8.90;99.90;;;;;;4975260;28;20313;-70
2021/05/26 05:59:50;;;;;;;14.52;9.70;;;8.90;99.90;;;;;;4974609;28;20046;-70
2021/05/26 06:02:16;;;;;;;18.30;10.45;;;8.90;99.90;;;;;;4975633;28;20129;-71
2021/05/26 06:04:43;;;;;;;15.65;10.48;;;9.00;99.90;;;;;;4975017;28;20067;-70
2021/05/26 06:07:09;;;;;;;13.95;9.95;;;9.00;99.90;;;;;;4975263;28;20043;-71
2021/05/26 06:09:36;;;;;;;15.02;9.55;;;9.00;99.90;;;;;;4974899;28;20470;-70
2021/05/26 06:12:03;;;;;;;12.82;9.43;;;9.10;99.90;;;;;;4974945;28;20149;-70
2021/05/26 06:14:30;;;;;;;14.13;10.07;;;9.00;99.90;;;;;;4974840;28;20133;-70
2021/05/26 06:16:57;;;;;;;13.80;10.73;;;9.10;99.90;;;;;;4973570;28;20565;-70
2021/05/26 06:19:23;;;;;;;18.88;9.95;;;9.10;99.90;;;;;;4975007;28;20043;-70
2021/05/26 06:21:50;;;;;;;;;;;9.20;99.90;;;;;;4974760;28;20050;-70
2021/05/26 06:24:17;;;;;;;14.75;10.18;;;9.20;99.90;;;;;;4972893;28;19964;-70
2021/05/26 06:26:43;;;;;;;12.15;8.60;;;9.20;99.90;;;;;;4974697;28;20066;-70
2021/05/26 06:29:10;;;;;;;13.20;9.80;;;9.10;99.90;;;;;;4974336;28;20121;-70
2021/05/26 06:31:36;;;;;;;16.85;10.00;;;9.20;99.90;;;;;;4974307;28;20173;-69
2021/05/26 06:34:04;;;;;;;11.73;8.60;;;9.20;99.90;;;;;;4974249;28;20046;-70
2021/05/26 06:36:32;;;;;;;11.88;8.98;;;9.30;99.90;;;;;;4974505;28;20047;-70
2021/05/26 06:38:59;;;;;;;10.40;9.23;;;9.30;99.90;;;;;;4973067;28;20047;-69
2021/05/26 06:41:26;;;;;;;16.25;9.88;;;9.30;99.90;;;;;;4974799;28;20423;-70
2021/05/26 06:43:53;;;;;;;12.90;9.13;;;9.30;99.90;;;;;;4974716;28;20472;-69
2021/05/26 06:46:19;;;;;;;;;;;9.30;99.90;;;;;;4974943;28;20054;-70
2021/05/26 06:48:45;;;;;;;14.02;9.88;;;9.30;99.90;;;;;;4975714;28;19928;-70
2021/05/26 06:51:13;;;;;;;18.73;9.57;;;9.30;99.90;;;;;;4974887;28;20038;-70
2021/05/26 06:53:40;;;;;;;13.00;9.45;;;9.30;99.90;;;;;;4974310;28;20046;-70
2021/05/26 06:56:07;;;;;;;15.38;9.13;;;9.40;99.90;;;;;;4960642;28;20620;-71
2021/05/26 06:58:33;;;;;;;12.73;8.52;;;9.40;99.90;;;;;;4954729;28;20062;-70
2021/05/26 07:01:00;;;;;;;13.15;8.65;;;9.30;99.90;;;;;;4954347;28;20577;-70
2021/05/26 07:03:26;;;;;;;17.23;8.68;;;9.40;99.90;;;;;;4955115;28;20039;-71
2021/05/26 07:05:53;;;;;;;13.15;7.45;;;9.40;99.90;;;;;;4954889;28;20043;-70
2021/05/26 07:08:20;;;;;;;14.88;7.93;;;9.50;99.90;;;;;;4953774;28;20483;-70
2021/05/26 07:10:47;;;;;;;10.68;7.32;;;9.50;99.90;;;;;;4954704;28;20073;-70
2021/05/26 07:13:14;;;;;;;14.02;7.50;;;9.50;99.90;;;;;;4954881;28;20058;-69
2021/05/26 07:15:40;;;;;;;8.52;7.72;;;9.50;99.90;;;;;;4954639;28;20463;-70
2021/05/26 07:18:08;;;;;;;11.75;7.65;;;9.60;99.90;;;;;;4954310;28;20554;-71
2021/05/26 07:20:36;;;;;;;13.27;7.88;;;9.70;99.90;;;;;;4954309;28;20069;-71
2021/05/26 07:23:03;;;;;;;13.77;7.93;;;9.70;99.90;;;;;;4954218;28;20094;-70
2021/05/26 07:25:30;;;;;;;;;;;9.70;99.90;;;;;;4953205;28;20051;-72
2021/05/26 07:27:57;;;;;;;9.43;7.00;;;9.70;99.90;;;;;;4953976;28;19973;-71
2021/05/26 07:30:24;;;;;;;11.52;7.22;;;9.60;99.90;;;;;;4959586;28;20062;-71
2021/05/26 07:32:51;;;;;;;14.00;8.73;;;9.50;99.90;;;;;;4955130;28;20050;-71
2021/05/26 07:35:17;;;;;;;14.48;8.52;;;9.50;99.90;;;;;;4954890;28;20043;-71
2021/05/26 07:37:44;;;;;;;10.90;8.25;;;9.50;99.90;;;;;;4955525;28;20071;-71
2021/05/26 07:40:12;;;;;;;13.20;7.63;;;9.60;99.90;;;;;;4954305;28;20134;-71
2021/05/26 07:42:40;;;;;;;14.77;7.85;;;9.70;99.90;;;;;;4953798;28;20298;-71
2021/05/26 07:45:07;;;;;;;12.93;8.10;;;9.60;99.90;;;;;;4953454;28;20053;-70
2021/05/26 07:47:35;;;;;;;12.77;7.72;;;9.60;99.90;;;;;;4952121;28;20467;-70
2021/05/26 07:50:02;;;;;;;12.88;7.97;;;9.60;99.90;;;;;;4953783;28;20522;-71
2021/05/26 07:52:30;;;;;;;12.25;8.00;;;9.50;99.90;;;;;;4953575;28;20051;-71
2021/05/26 07:54:58;;;;;;;9.35;6.88;;;9.70;99.90;;;;;;4956376;28;20399;-71
2021/05/26 07:57:24;;;;;;;17.17;8.75;;;9.60;99.90;;;;;;4972928;28;20094;-71
2021/05/26 07:59:52;;;;;;;;;;;9.80;99.90;;;;;;4973199;28;20047;-71
2021/05/26 08:02:19;;;;;;;10.25;8.48;;;9.70;99.90;;;;;;4971301;28;20315;-71
2021/05/26 08:04:48;;;;;;;11.38;7.70;;;9.70;99.90;;;;;;4972758;28;20053;-71
2021/05/26 08:07:14;;;;;;;9.50;8.13;;;9.60;99.90;;;;;;4972312;28;20113;-70
2021/05/26 08:09:41;;;;;;;;;;;9.80;99.90;;;;;;4973150;28;20054;-71
2021/05/26 08:12:09;;;;;;;10.52;7.03;;;9.80;99.90;;;;;;4971752;28;19922;-71
2021/05/26 08:14:35;;;;;;;12.32;7.32;;;9.80;99.90;;;;;;4972617;28;20057;-70
2021/05/26 08:17:03;;;;;;;10.90;7.45;;;9.80;99.90;;;;;;4972961;28;20055;-71
2021/05/26 08:19:30;;;;;;;11.18;7.13;;;9.90;99.90;;;;;;4972681;28;20117;-71
2021/05/26 08:21:56;;;;;;;;;;;10.00;99.90;;;;;;4972880;28;20054;-70
2021/05/26 08:24:23;;;;;;;10.07;6.65;;;9.90;99.90;;;;;;4972878;28;19926;-70
2021/05/26 08:26:49;;;;;;;10.68;6.88;;;9.80;99.90;;;;;;4972324;28;20403;-71
2021/05/26 08:29:16;;;;;;;16.15;7.40;;;10.00;99.90;;;;;;4972939;28;20055;-71
2021/05/26 08:31:42;;;;;;;10.63;7.32;;;10.10;99.90;;;;;;4972591;28;20145;-71
2021/05/26 08:34:10;;;;;;;11.43;5.85;;;10.20;99.90;;;;;;4972772;28;20047;-71
2021/05/26 08:36:37;;;;;;;9.07;4.95;;;10.20;99.90;;;;;;4972858;28;20047;-71
2021/05/26 08:39:04;;;;;;;10.82;5.57;;;10.40;99.90;;;;;;4971300;28;20051;-72
2021/05/26 08:41:31;;;;;;;11.57;5.43;;;10.40;99.90;;;;;;4967665;28;20046;-69
2021/05/26 08:43:57;;;;;;;8.77;5.25;;;10.50;99.90;;;;;;4970917;28;20047;-69
2021/05/26 08:46:24;;;;;;;10.02;4.45;;;10.40;99.90;;;;;;4969330;28;20054;-68
2021/05/26 08:48:52;;;;;;;;;;;10.50;99.90;;;;;;4971829;28;20062;-68
2021/05/26 08:51:21;;;;;;;;;;;10.50;99.90;;;;;;4971151;28;19977;-69
2021/05/26 08:53:48;;;;;;;11.50;4.65;;;10.50;99.90;;;;;;4971037;28;19929;-69
2021/05/26 08:56:15;;;;;;;6.90;4.53;;;10.60;99.90;;;;;;4972105;28;20038;-69
2021/05/26 08:58:43;;;;;;;10.75;4.78;;;10.60;99.90;;;;;;4972061;28;20057;-69
2021/05/26 09:01:09;;;;;;;14.15;4.70;;;10.60;99.90;;;;;;4970925;28;20047;-68
2021/05/26 09:03:36;;;;;;;9.43;4.13;;;10.70;99.90;;;;;;4970666;28;20046;-68
2021/05/26 09:06:05;;;;;;;10.13;4.38;;;10.70;99.90;;;;;;4969107;28;20395;-69
2021/05/26 09:08:32;;;;;;;9.13;4.72;;;10.70;99.90;;;;;;4970956;28;20479;-67
2021/05/26 09:11:01;;;;;;;6.25;3.58;;;10.80;99.90;;;;;;4972046;28;20054;-67
2021/05/26 09:13:34;;;;;;;6.40;3.30;;;10.90;99.90;;;;;;4972728;28;20050;-66
2021/05/26 09:16:01;;;;;;;9.70;3.22;;;11.10;99.90;;;;;;4974188;28;20577;-66
2021/05/26 09:18:28;;;;;;;8.90;3.50;;;11.40;99.90;;;;;;4977446;28;20070;-67
2021/05/26 09:20:56;;;;;;;;;;;11.60;99.90;;;;;;4976677;28;20057;-67
2021/05/26 09:23:32;;;;;;;9.80;3.40;;;11.40;99.90;;;;;;4977137;28;19922;-67
2021/05/26 09:26:00;;;;;;;8.25;3.10;;;11.40;99.90;;;;;;4979052;28;20055;-67
2021/05/26 09:28:30;;;;;;;5.82;2.60;;;11.20;99.90;;;;;;4974699;28;20043;-67
2021/05/26 09:31:01;;;;;;;10.15;3.03;;;11.20;99.90;;;;;;4972349;28;20046;-67
2021/05/26 09:33:37;;;;;;;14.63;3.05;;;11.10;99.90;;;;;;4970516;28;20046;-68
2021/05/26 09:36:19;;;;;;;4.38;3.03;;;11.20;99.90;;;;;;4957575;28;20421;-68
2021/05/26 09:38:49;;;;;;;9.15;2.63;;;11.30;99.90;;;;;;4967519;28;20106;-68
2021/05/26 09:41:19;;;;;;;6.25;2.80;;;11.40;99.90;;;;;;4964350;28;20050;-68
2021/05/26 09:43:48;;;;;;;4.95;2.92;;;11.70;99.90;;;;;;4969280;28;20051;-68
2021/05/26 09:46:30;;;;;;;8.32;2.40;;;11.80;99.90;;;;;;4972044;28;20058;-69
2021/05/26 09:49:11;;;;;;;4.30;2.70;;;12.10;99.90;;;;;;4968890;28;20067;-68
2021/05/26 09:51:39;;;;;;;6.15;3.10;;;12.20;99.90;;;;;;4961664;28;20047;-66
2021/05/26 09:54:26;;;;;;;5.45;2.25;;;12.30;99.90;;;;;;4965082;28;21489;-67
2021/05/26 09:56:54;;;;;;;5.30;2.83;;;12.40;99.90;;;;;;4969011;28;20049;-67
2021/05/26 09:59:23;;;;;;;3.92;1.90;;;12.60;99.90;;;;;;4969375;28;20043;-67
2021/05/26 10:01:54;;;;;;;4.00;1.92;;;12.60;99.90;;;;;;4965837;28;20057;-66
2021/05/26 10:04:20;;;;;;;6.85;2.53;;;12.60;99.90;;;;;;4969441;28;20039;-66
2021/05/26 10:06:55;;;;;;;7.20;2.40;;;12.30;99.90;;;;;;4969472;28;20051;-67
2021/05/26 10:09:33;;;;;;;6.53;2.53;;;12.30;99.90;;;;;;4969394;28;20055;-67
2021/05/26 10:12:10;;;;;;;8.60;3.13;;;12.10;99.90;;;;;;4966386;28;20054;-66
2021/05/26 10:14:38;;;;;;;4.75;2.35;;;12.10;99.90;;;;;;4969285;28;20066;-67
2021/05/26 10:17:06;;;;;;;4.72;2.40;;;12.00;99.90;;;;;;4967195;28;20054;-68
2021/05/26 10:19:33;;;;;;;6.05;2.35;;;11.90;99.90;;;;;;4969401;28;20133;-67
2021/05/26 10:22:00;;;;;;;5.65;2.63;;;11.90;99.90;;;;;;4969114;28;20047;-68
2021/05/26 10:24:27;;;;;;;5.75;2.40;;;11.80;99.90;;;;;;4966937;28;20043;-67
2021/05/26 10:27:02;;;;;;;7.60;2.70;;;11.80;99.90;;;;;;4967996;28;20132;-69
2021/05/26 10:29:43;;;;;;;12.02;2.60;;;12.00;99.90;;;;;;4970248;28;20046;-68
2021/05/26 10:32:27;;;;;;;5.85;2.28;;;12.20;99.90;;;;;;4970373;28;20510;-69
2021/05/26 10:35:07;;;;;;;4.90;1.75;;;12.20;99.90;;;;;;4969476;28;20062;-68
2021/05/26 10:37:42;;;;;;;6.53;1.80;;;12.30;99.90;;;;;;4973299;28;20125;-68
2021/05/26 10:40:32;;;;;;;5.95;1.80;;;12.40;99.90;;;;;;4973827;28;20876;-68
2021/05/26 10:43:25;;;;;;;6.20;1.52;;;12.50;99.90;;;;;;4970129;28;20043;-68
2021/05/26 10:45:54;;;;;;;1.90;1.40;;;12.50;99.90;;;;;;4961367;28;20406;-68
2021/05/26 10:49:03;;;;;;;3.10;1.50;;;12.50;99.90;;;;;;4968986;28;20612;-68
2021/05/26 10:52:03;;;;;;;5.47;2.20;;;12.40;99.90;;;;;;4963982;28;20533;-69
2021/05/26 10:55:07;;;;;;;2.88;1.35;;;12.40;99.90;;;;;;4968118;28;20049;-68
2021/05/26 10:58:09;;;;;;;3.53;1.48;;;12.40;99.90;;;;;;4970761;28;20109;-69
2021/05/26 11:00:37;;;;;;;2.63;1.23;;;12.30;99.90;;;;;;4963618;28;20050;-68
2021/05/26 11:03:40;;;;;;;4.50;1.10;;;12.40;99.90;;;;;;4970099;28;20093;-68
2021/05/26 11:06:37;;;;;;;3.88;1.40;;;12.40;99.90;;;;;;4966524;28;20093;-68
2021/05/26 11:09:08;;;;;;;2.22;1.38;;;12.30;99.90;;;;;;4971050;28;20521;-68
2021/05/26 11:11:53;;;;;;;2.28;1.42;;;12.20;99.90;;;;;;4968753;28;20050;-69
2021/05/26 11:14:28;;;;;;;4.57;2.05;;;12.40;99.90;;;;;;4969030;28;20134;-68
2021/05/26 11:17:23;;;;;;;2.15;1.52;;;12.30;99.90;;;;;;4964813;28;20068;-69
2021/05/26 11:19:51;;;;;;;4.28;2.05;;;12.40;99.90;;;;;;4966135;28;20202;-69
2021/05/26 11:22:23;;;;;;;4.63;1.80;;;12.30;99.90;;;;;;4966852;28;20550;-69
2021/05/26 11:24:52;;;;;;;3.30;1.83;;;12.20;99.90;;;;;;4964953;28;20562;-69
2021/05/26 11:27:21;;;;;;;2.53;1.90;;;11.90;99.90;;;;;;4968436;28;20038;-69
2021/05/26 11:29:50;;;;;;;2.63;1.70;;;11.90;99.90;;;;;;4965714;28;21162;-69
2021/05/26 11:32:18;;;;;;;1.92;1.30;;;11.90;99.90;;;;;;4968092;28;20122;-68
2021/05/26 11:34:47;;;;;;;4.45;1.50;;;12.00;99.90;;;;;;4973010;28;20101;-69
2021/05/26 11:37:26;;;;;;;3.60;1.73;;;11.90;99.90;;;;;;4969143;28;20054;-69
2021/05/26 11:39:53;;;;;;;2.20;1.52;;;12.00;99.90;;;;;;4963214;28;20471;-70
2021/05/26 11:42:21;;;;;;;2.28;1.33;;;12.10;99.90;;;;;;4970647;28;20124;-70
2021/05/26 11:44:55;;;;;;;2.13;1.60;;;11.80;99.90;;;;;;4972378;28;20121;-70
2021/05/26 11:47:30;;;;;;;4.03;1.67;;;11.80;99.90;;;;;;4972723;28;20411;-69
2021/05/26 11:49:58;;;;;;;1.80;1.35;;;11.60;99.90;;;;;;4971683;28;20062;-69
2021/05/26 11:52:26;;;;;;;3.88;1.40;;;11.60;99.90;;;;;;4971448;28;20081;-70
2021/05/26 11:54:53;;;;;;;1.92;1.33;;;11.60;99.90;;;;;;4972219;28;20054;-70
2021/05/26 11:57:20;;;;;;;2.92;1.17;;;11.70;99.90;;;;;;4971121;28;20064;-70
2021/05/26 11:59:50;;;;;;;;;;;11.90;99.90;;;;;;4970797;28;20047;-70
2021/05/26 12:02:16;;;;;;;3.63;1.30;;;12.20;99.90;;;;;;4972904;28;19922;-70
2021/05/26 12:04:43;;;;;;;2.83;1.33;;;12.50;99.90;;;;;;4971658;28;20054;-69
2021/05/26 12:07:10;;;;;;;2.28;1.00;;;12.70;99.90;;;;;;4969152;28;20046;-69
2021/05/26 12:09:37;;;;;;;1.00;0.90;;;12.90;99.90;;;;;;4968287;28;20038;-67
2021/05/26 12:12:16;;;;;;;1.17;0.82;;;12.80;99.90;;;;;;4968474;28;20049;-68
2021/05/26 12:14:42;;;;;;;1.05;0.60;;;13.10;99.90;;;;;;4968665;28;20042;-67
2021/05/26 12:17:10;;;;;;;;;;;13.10;99.90;;;;;;4970234;28;20125;-68
2021/05/26 12:19:37;;;;;;;1.13;0.57;;;13.00;99.90;;;;;;4963352;28;19926;-68
2021/05/26 12:22:10;;;;;;;0.90;0.70;;;12.80;99.90;;;;;;4963488;28;20116;-68
2021/05/26 12:24:54;;;;;;;4.03;0.75;;;12.50;99.90;;;;;;4971280;28;20054;-68
2021/05/26 12:27:42;;;;;;;0.95;0.68;;;12.40;99.90;;;;;;4969592;28;20067;-68
2021/05/26 12:30:18;;;;;;;1.13;0.93;;;12.40;99.90;;;;;;4962309;28;20097;-68
2021/05/26 12:32:45;;;;;;;1.08;0.80;;;12.40;99.90;;;;;;4965601;28;20174;-69
2021/05/26 12:35:13;;;;;;;2.92;1.10;;;12.60;99.90;;;;;;4962763;28;20050;-68
2021/05/26 12:37:40;;;;;;;1.60;1.10;;;12.90;99.90;;;;;;4968141;28;20063;-68
2021/05/26 12:40:09;;;;;;;2.20;0.93;;;13.00;99.90;;;;;;4962735;28;20070;-69
2021/05/26 12:42:38;;;;;;;1.52;0.90;;;13.40;99.90;;;;;;4961441;28;20055;-69
2021/05/26 12:45:22;;;;;;;0.77;0.70;;;13.70;99.90;;;;;;4962576;28;20170;-68
2021/05/26 12:47:49;;;;;;;2.65;1.20;;;14.20;99.90;;;;;;4964443;28;20166;-68
2021/05/26 12:50:17;;;;;;;0.93;0.70;;;14.50;99.90;;;;;;4962671;28;20519;-68
2021/05/26 12:52:45;;;;;;;1.88;0.98;;;14.50;99.90;;;;;;4965308;28;20497;-69
2021/05/26 12:55:15;;;;;;;3.33;1.40;;;14.50;99.90;;;;;;4961611;28;20475;-69
2021/05/26 12:57:43;;;;;;;3.03;0.95;;;14.20;99.90;;;;;;4979230;28;20129;-69
2021/05/26 13:00:12;;;;;;;1.15;0.50;;;13.90;99.90;;;;;;4972375;28;20118;-69
2021/05/26 13:02:41;;;;;;;1.05;0.50;;;13.90;99.90;;;;;;4970806;28;20039;-69
2021/05/26 13:05:11;;;;;;;1.55;0.60;;;14.10;99.90;;;;;;4972204;28;20136;-69
2021/05/26 13:07:40;;;;;;;1.00;0.68;;;13.90;99.90;;;;;;4969457;28;20046;-69
2021/05/26 13:10:25;;;;;;;2.40;0.57;;;14.20;99.90;;;;;;4969005;28;20043;-68
2021/05/26 13:12:55;;;;;;;1.58;0.60;;;14.10;99.90;;;;;;4969075;28;20050;-68
2021/05/26 13:15:28;;;;;;;1.10;0.60;;;13.70;99.90;;;;;;4969741;28;20054;-66
2021/05/26 13:17:57;;;;;;;1.17;0.60;;;13.50;99.90;;;;;;4971303;28;20094;-67
2021/05/26 13:20:27;;;;;;;3.33;1.08;;;13.80;99.90;;;;;;4952043;29;20110;-68
2021/05/26 13:22:55;;;;;;;2.10;1.13;;;14.30;99.90;;;;;;4957359;28;20043;-68
2021/05/26 13:25:23;;;;;;;0.90;0.82;;;14.40;99.90;;;;;;4968163;28;20046;-68
2021/05/26 13:27:52;;;;;;;2.30;0.95;;;14.20;99.90;;;;;;4970028;28;20520;-68
2021/05/26 13:30:20;;;;;;;1.13;0.90;;;14.50;99.90;;;;;;4970130;28;20046;-68
2021/05/26 13:32:48;;;;;;;2.08;0.77;;;14.50;99.90;;;;;;4969577;28;20054;-68
2021/05/26 13:35:15;;;;;;;2.03;1.48;;;14.30;99.90;;;;;;4969612;28;20187;-68
2021/05/26 13:37:42;;;;;;;;;;;14.60;99.90;;;;;;4971380;28;20111;-67
2021/05/26 13:40:10;;;;;;;1.45;0.57;;;14.30;99.90;;;;;;4970593;28;20016;-68
2021/05/26 13:42:39;;;;;;;1.20;0.57;;;14.00;99.90;;;;;;4969391;28;20072;-67
2021/05/26 13:45:08;;;;;;;3.08;0.60;;;14.00;99.90;;;;;;4978090;28;20265;-68
2021/05/26 13:47:35;;;;;;;0.85;0.60;;;14.10;99.90;;;;;;4971778;28;20047;-69
2021/05/26 13:50:03;;;;;;;0.43;0.40;;;14.50;99.90;;;;;;4966824;28;20069;-69
2021/05/26 13:52:29;;;;;;;2.88;0.50;;;14.40;99.90;;;;;;4967894;28;20463;-69
2021/05/26 13:54:56;;;;;;;0.70;0.40;;;14.20;99.90;;;;;;4969085;28;20089;-69
2021/05/26 13:57:23;;;;;;;0.30;0.30;;;14.20;99.90;;;;;;4969241;28;20035;-69
2021/05/26 13:59:50;;;;;;;;;;;14.40;99.90;;;;;;4967328;28;20141;-69
2021/05/26 14:02:17;;;;;;;3.03;0.50;;;14.50;99.90;;;;;;4969463;28;19941;-69
2021/05/26 14:04:43;;;;;;;0.73;0.35;;;14.60;99.90;;;;;;4968537;28;20057;-69
2021/05/26 14:07:10;;;;;;;0.47;0.45;;;14.70;99.90;;;;;;4970945;28;20082;-69
2021/05/26 14:09:36;;;;;;;0.63;0.28;;;14.60;99.90;;;;;;4972365;28;20081;-69
2021/05/26 14:12:04;;;;;;;3.60;0.40;;;14.30;99.90;;;;;;4974598;28;20042;-69
2021/05/26 14:14:32;;;;;;;0.50;0.20;;;13.80;99.90;;;;;;4965508;28;20051;-70
2021/05/26 14:17:00;;;;;;;0.32;0.30;;;13.20;99.90;;;;;;4974576;28;20054;-69
2021/05/26 14:19:26;;;;;;;1.55;1.20;;;12.80;99.90;;;;;;4973625;28;20058;-68
2021/05/26 14:21:53;;;;;;;7.80;4.82;;;12.70;99.90;;;;;;4974060;28;20246;-69
2021/05/26 14:24:20;;;;;;;13.82;7.47;;;12.60;99.90;;;;;;4973032;28;20049;-68
2021/05/26 14:26:47;;;;;;;13.23;7.95;;;12.50;99.90;;;;;;4970067;28;20105;-68
2021/05/26 14:29:13;;;;;;;;;;;12.70;99.90;;;;;;4971344;28;20539;-69
2021/05/26 14:31:39;;;;;;;2.13;0.85;;;12.70;99.90;;;;;;4972098;28;19941;-70
2021/05/26 14:34:07;;;;;;;0.90;0.82;;;12.80;99.90;;;;;;4973798;28;20050;-69
2021/05/26 14:36:34;;;;;;;2.80;0.60;;;13.00;99.90;;;;;;4972685;28;20457;-69
2021/05/26 14:39:01;;;;;;;2.85;0.88;;;13.20;99.90;;;;;;4973494;28;20039;-69
2021/05/26 14:41:29;;;;;;;2.20;1.20;;;13.60;99.90;;;;;;4973722;28;20073;-69
2021/05/26 14:43:58;;;;;;;1.45;0.30;;;13.90;99.90;;;;;;4972325;28;20410;-69
2021/05/26 14:46:25;;;;;;;1.52;0.60;;;14.30;99.90;;;;;;4966207;28;20043;-69
2021/05/26 14:48:53;;;;;;;;;;;14.50;99.90;;;;;;4970109;28;20103;-69
2021/05/26 14:51:21;;;;;;;0.25;0.25;;;14.20;99.90;;;;;;4965761;28;19926;-69
2021/05/26 14:53:47;;;;;;;0.40;0.20;;;14.30;99.90;;;;;;4971746;28;20049;-69
2021/05/26 14:56:14;;;;;;;;;;;14.40;99.90;;;;;;4971585;28;20134;-69
2021/05/26 14:58:42;;;;;;;0.50;0.40;;;14.20;99.90;;;;;;4971584;28;19985;-68
2021/05/26 15:01:10;;;;;;;1.00;0.22;;;14.10;99.90;;;;;;4969640;28;20064;-68
2021/05/26 15:03:37;;;;;;;0.52;0.38;;;14.20;99.90;;;;;;4969922;28;20511;-67
2021/05/26 15:06:04;;;;;;;0.73;0.52;;;14.20;99.90;;;;;;4969433;28;20035;-68
2021/05/26 15:08:31;;;;;;;0.70;0.20;;;14.30;99.90;;;;;;4973191;28;20070;-69
2021/05/26 15:11:01;;;;;;;0.63;0.60;;;14.30;99.90;;;;;;4972826;28;20039;-68
2021/05/26 15:13:29;;;;;;;0.45;0.30;;;14.10;99.90;;;;;;4957897;28;20047;-68
2021/05/26 15:15:55;;;;;;;2.00;0.20;;;14.00;99.90;;;;;;4971402;28;20244;-68
2021/05/26 15:18:22;;;;;;;0.93;0.60;;;13.80;99.90;;;;;;4966936;28;20031;-69
2021/05/26 15:20:49;;;;;;;1.92;1.67;;;13.90;99.90;;;;;;4968429;28;20097;-69
2021/05/26 15:23:17;;;;;;;;;;;14.00;99.90;;;;;;4971495;28;20050;-68
2021/05/26 15:25:44;;;;;;;;;;;14.20;99.90;;;;;;4970155;28;20332;-69
2021/05/26 15:28:13;;;;;;;0.50;0.20;;;14.60;99.90;;;;;;4969501;28;19945;-68
2021/05/26 15:30:42;;;;;;;0.93;0.52;;;14.80;99.90;;;;;;4971820;28;20054;-69
2021/05/26 15:33:08;;;;;;;1.17;0.80;;;14.80;99.90;;;;;;4972252;28;20467;-69
2021/05/26 15:35:35;;;;;;;1.23;0.60;;;14.70;99.90;;;;;;4971253;28;20527;-68
2021/05/26 15:38:03;;;;;;;0.85;0.57;;;14.70;99.90;;;;;;4981795;28;20101;-69
2021/05/26 15:40:30;;;;;;;1.75;0.50;;;14.70;99.90;;;;;;4972333;28;20049;-69
2021/05/26 15:42:58;;;;;;;6.53;0.85;;;14.70;99.90;;;;;;4971411;28;20407;-69
2021/05/26 15:45:25;;;;;;;2.05;0.65;;;14.80;99.90;;;;;;4968506;28;20098;-68
2021/05/26 15:47:51;;;;;;;;;;;14.80;99.90;;;;;;4971521;28;20045;-68
2021/05/26 15:50:18;;;;;;;0.73;0.55;;;14.60;99.90;;;;;;4976354;28;19922;-68
2021/05/26 15:52:45;;;;;;;0.75;0.52;;;14.70;99.90;;;;;;4971745;28;20074;-68
2021/05/26 15:55:14;;;;;;;1.20;0.70;;;14.50;99.90;;;;;;4968723;28;20049;-68
2021/05/26 15:57:43;;;;;;;2.58;1.88;;;14.60;99.90;;;;;;4971052;28;20074;-68
2021/05/26 16:00:13;;;;;;;3.25;2.08;;;14.70;99.90;;;;;;4970004;28;20050;-68
2021/05/26 16:02:40;;;;;;;2.67;1.33;;;14.80;99.90;;;;;;4968214;28;20065;-68
2021/05/26 16:05:08;;;;;;;2.60;1.13;;;14.60;99.90;;;;;;4971755;28;20066;-69
2021/05/26 16:07:34;;;;;;;0.77;0.68;;;14.60;99.90;;;;;;4970469;28;20101;-68
2021/05/26 16:10:01;;;;;;;0.55;0.40;;;14.80;99.90;;;;;;4969204;28;20487;-68
2021/05/26 16:12:28;;;;;;;0.63;0.63;;;14.70;99.90;;;;;;4968853;28;20038;-68
2021/05/26 16:14:55;;;;;;;0.95;0.60;;;14.90;99.90;;;;;;4971578;28;20057;-67
2021/05/26 16:17:22;;;;;;;;;;;15.00;99.90;;;;;;4987538;28;20043;-68
2021/05/26 16:19:49;;;;;;;0.50;0.50;;;15.00;99.90;;;;;;4971709;28;19922;-69
2021/05/26 16:22:16;;;;;;;3.33;0.95;;;15.00;99.90;;;;;;4972134;28;20082;-68
2021/05/26 16:24:43;;;;;;;1.48;1.38;;;14.90;99.90;;;;;;4971906;28;20058;-68
2021/05/26 16:27:10;;;;;;;1.83;1.17;;;14.80;99.90;;;;;;4971711;28;20057;-68
2021/05/26 16:29:38;;;;;;;4.00;1.23;;;14.80;99.90;;;;;;4971319;28;20034;-68
2021/05/26 16:32:06;;;;;;;1.30;0.80;;;14.90;99.90;;;;;;4972465;28;20047;-68
2021/05/26 16:34:34;;;;;;;1.08;0.73;;;14.80;99.90;;;;;;4959975;28;20057;-68
2021/05/26 16:37:01;;;;;;;1.67;1.00;;;14.70;99.90;;;;;;4967382;28;20043;-67
2021/05/26 16:39:28;;;;;;;1.17;0.80;;;14.60;99.90;;;;;;4970768;28;20518;-67
2021/05/26 16:41:55;;;;;;;1.13;1.00;;;14.60;99.90;;;;;;4971885;28;20051;-68
2021/05/26 16:44:23;;;;;;;3.10;1.73;;;14.50;99.90;;;;;;4971976;28;20042;-67
2021/05/26 16:46:50;;;;;;;2.10;1.90;;;14.30;99.90;;;;;;4969792;28;20047;-67
2021/05/26 16:49:17;;;;;;;1.50;1.00;;;14.20;99.90;;;;;;4971522;28;20039;-68
2021/05/26 16:51:47;;;;;;;1.10;1.05;;;14.10;99.90;;;;;;4971342;28;20165;-68
2021/05/26 16:54:14;;;;;;;1.42;1.25;;;14.20;99.90;;;;;;4971338;28;20101;-68
2021/05/26 16:56:44;;;;;;;2.00;1.35;;;14.20;99.90;;;;;;4967595;28;20054;-68
2021/05/26 16:59:13;;;;;;;1.33;1.00;;;14.20;99.90;;;;;;4969687;28;20070;-68
2021/05/26 17:01:42;;;;;;;2.78;1.20;;;14.20;99.90;;;;;;4971010;28;20129;-68
2021/05/26 17:04:09;;;;;;;2.15;1.27;;;14.10;99.90;;;;;;4971676;28;20054;-68
2021/05/26 17:06:36;;;;;;;8.02;1.77;;;14.00;99.90;;;;;;4970762;28;20054;-69
2021/05/26 17:09:04;;;;;;;3.28;1.98;;;13.10;99.90;;;;;;4970604;28;20049;-69
2021/05/26 17:11:32;;;;;;;3.55;2.15;;;12.10;99.90;;;;;;4970598;28;20038;-69
2021/05/26 17:13:59;;;;;;;3.95;2.13;;;11.70;99.90;;;;;;4970662;28;20439;-70
2021/05/26 17:16:27;;;;;;;3.65;2.58;;;11.50;99.90;;;;;;4969873;28;20041;-70
2021/05/26 17:18:54;;;;;;;3.60;2.13;;;11.40;99.90;;;;;;4971207;28;20035;-68
2021/05/26 17:21:22;;;;;;;3.22;2.58;;;11.10;99.90;;;;;;4971050;28;20042;-69
2021/05/26 17:23:50;;;;;;;5.80;3.65;;;10.90;99.90;;;;;;4968875;28;20487;-68
2021/05/26 17:26:17;;;;;;;9.70;3.35;;;10.80;99.90;;;;;;4957939;28;20380;-68
2021/05/26 17:28:44;;;;;;;8.15;3.80;;;10.80;99.90;;;;;;4964619;28;20039;-69
2021/05/26 17:31:11;;;;;;;;;;;10.80;99.90;;;;;;4967707;28;20042;-68
2021/05/26 17:33:38;;;;;;;4.30;3.90;;;10.80;99.90;;;;;;4969361;28;20494;-69
2021/05/26 17:36:05;;;;;;;4.47;4.07;;;10.80;99.90;;;;;;4961508;28;20046;-69
2021/05/26 17:38:33;;;;;;;6.40;5.35;;;11.00;99.90;;;;;;4970790;28;20051;-69
2021/05/26 17:41:00;;;;;;;8.80;5.00;;;11.10;99.90;;;;;;4968006;28;20066;-68
2021/05/26 17:43:27;;;;;;;8.15;4.65;;;11.20;99.90;;;;;;4967117;28;20050;-69
2021/05/26 17:45:54;;;;;;;5.25;3.97;;;11.40;99.90;;;;;;4970788;28;20929;-69
2021/05/26 17:48:21;;;;;;;6.43;4.63;;;11.40;99.90;;;;;;4977449;28;20121;-69
2021/05/26 17:50:48;;;;;;;6.85;3.72;;;11.60;99.90;;;;;;4971398;28;20525;-68
2021/05/26 17:53:15;;;;;;;6.47;4.15;;;11.60;99.90;;;;;;4975612;28;20078;-68